createdAt,value
2019-02-25T00:01:51.653Z,-6.13
2019-02-25T00:04:21.374Z,-6.09
2019-02-25T00:06:51.391Z,-6.09
2019-02-25T00:09:21.423Z,-6.07
2019-02-25T00:11:51.272Z,-6.04
2019-02-25T00:14:22.009Z,-6.13
2019-02-25T00:16:52.010Z,-6.12
2019-02-25T00:19:21.684Z,-6.13
2019-02-25T00:21:51.425Z,-6.11
2019-02-25T00:24:21.131Z,-6.23
2019-02-25T00:26:50.861Z,-6.21
2019-02-25T00:29:20.702Z,-6.36
2019-02-25T00:31:50.436Z,-6.39
2019-02-25T00:34:20.347Z,-6.37
2019-02-25T00:36:50.164Z,-6.38
2019-02-25T00:39:19.991Z,-6.41
2019-02-25T00:41:49.703Z,-6.51
2019-02-25T00:44:19.467Z,-6.60
2019-02-25T00:46:49.355Z,-6.54
2019-02-25T00:49:20.257Z,-6.48
2019-02-25T00:51:50.439Z,-6.52
2019-02-25T00:54:20.407Z,-6.59
2019-02-25T00:56:50.172Z,-6.48
2019-02-25T00:59:20.133Z,-6.37
2019-02-25T01:01:50.144Z,-6.25
2019-02-25T01:04:19.869Z,-6.20
2019-02-25T01:06:49.563Z,-6.02
2019-02-25T01:09:19.587Z,-5.95
2019-02-25T01:11:49.402Z,-6.04
2019-02-25T01:14:20.428Z,-6.30
2019-02-25T01:16:50.373Z,-6.34
2019-02-25T01:19:20.355Z,-6.34
2019-02-25T01:21:50.262Z,-6.29
2019-02-25T01:24:20.315Z,-6.50
2019-02-25T01:26:50.310Z,-6.52
2019-02-25T01:29:20.231Z,-6.53
2019-02-25T01:31:50.259Z,-6.48
2019-02-25T01:34:20.347Z,-6.52
2019-02-25T01:36:50.084Z,-6.56
2019-02-25T01:39:20.121Z,-6.50
2019-02-25T01:41:49.824Z,-6.51
2019-02-25T01:44:19.841Z,-6.55
2019-02-25T01:46:49.593Z,-6.65
2019-02-25T01:49:19.319Z,-6.74
2019-02-25T01:51:49.007Z,-6.75
2019-02-25T01:54:18.977Z,-6.73
2019-02-25T01:56:48.769Z,-6.72
2019-02-25T01:59:18.491Z,-6.70
2019-02-25T02:01:48.543Z,-6.84
2019-02-25T02:04:18.261Z,-6.81
2019-02-25T02:06:48.018Z,-7.03
2019-02-25T02:09:17.941Z,-7.04
2019-02-25T02:11:47.636Z,-7.28
2019-02-25T02:14:17.950Z,-7.34
2019-02-25T02:16:48.074Z,-7.44
2019-02-25T02:19:18.090Z,-7.44
2019-02-25T02:21:47.799Z,-7.43
2019-02-25T02:24:17.858Z,-7.58
2019-02-25T02:26:47.852Z,-7.39
2019-02-25T02:29:18.010Z,-7.40
2019-02-25T02:31:47.904Z,-7.39
2019-02-25T02:34:17.749Z,-7.38
2019-02-25T02:36:47.742Z,-7.34
2019-02-25T02:39:17.713Z,-7.33
2019-02-25T02:42:04.941Z,-7.44
2019-02-25T02:44:34.865Z,-7.40
2019-02-25T02:47:22.101Z,-7.35
2019-02-25T02:49:51.871Z,-7.46
2019-02-25T02:52:21.913Z,-7.61
2019-02-25T02:54:51.945Z,-7.58
2019-02-25T02:57:21.869Z,-7.61
2019-02-25T02:59:51.670Z,-7.52
2019-02-25T03:02:21.935Z,-7.48
2019-02-25T03:04:51.993Z,-7.52
2019-02-25T03:07:21.717Z,-7.49
2019-02-25T03:09:51.609Z,-7.54
2019-02-25T03:12:21.758Z,-7.39
2019-02-25T03:14:51.768Z,-7.38
2019-02-25T03:17:23.195Z,-7.45
2019-02-25T03:19:54.461Z,-7.66
2019-02-25T03:22:24.387Z,-7.82
2019-02-25T03:24:55.436Z,-7.85
2019-02-25T03:27:25.519Z,-7.59
2019-02-25T03:29:55.230Z,-7.49
2019-02-25T03:32:25.256Z,-7.41
2019-02-25T03:34:55.165Z,-7.53
2019-02-25T03:37:25.177Z,-7.36
2019-02-25T03:39:55.185Z,-7.18
2019-02-25T03:42:25.194Z,-7.29
2019-02-25T03:44:55.096Z,-7.45
2019-02-25T03:47:24.831Z,-7.39
2019-02-25T03:49:54.832Z,-7.37
2019-02-25T03:52:24.561Z,-7.47
2019-02-25T03:54:54.568Z,-7.26
2019-02-25T03:57:24.796Z,-7.31
2019-02-25T03:59:54.819Z,-7.22
2019-02-25T04:02:24.912Z,-7.34
2019-02-25T04:04:55.050Z,-7.38
2019-02-25T04:07:25.069Z,-7.43
2019-02-25T04:09:55.021Z,-7.43
2019-02-25T04:12:25.036Z,-7.47
2019-02-25T04:14:54.801Z,-7.39
2019-02-25T04:17:24.764Z,-7.34
2019-02-25T04:19:55.010Z,-7.60
2019-02-25T04:22:25.274Z,-7.69
2019-02-25T04:24:55.434Z,-7.67
2019-02-25T04:27:25.535Z,-7.75
2019-02-25T04:29:55.462Z,-7.81
2019-02-25T04:32:25.405Z,-7.93
2019-02-25T04:34:55.561Z,-7.91
2019-02-25T04:37:25.402Z,-7.97
2019-02-25T04:39:55.155Z,-8.06
2019-02-25T04:42:25.008Z,-8.00
2019-02-25T04:44:55.066Z,-8.09
2019-02-25T04:47:24.826Z,-8.09
2019-02-25T04:49:54.575Z,-8.07
2019-02-25T04:52:24.364Z,-8.04
2019-02-25T04:54:54.071Z,-7.88
2019-02-25T04:57:23.864Z,-7.92
2019-02-25T04:59:53.613Z,-8.07
2019-02-25T05:02:23.380Z,-8.12
2019-02-25T05:04:53.166Z,-8.16
2019-02-25T05:07:23.266Z,-8.26
2019-02-25T05:09:53.144Z,-8.19
2019-02-25T05:12:23.388Z,-8.30
2019-02-25T05:14:53.491Z,-8.15
2019-02-25T05:17:23.330Z,-8.11
2019-02-25T05:19:53.449Z,-8.04
2019-02-25T05:22:23.465Z,-8.03
2019-02-25T05:24:53.342Z,-8.02
2019-02-25T05:27:23.560Z,-8.06
2019-02-25T05:29:54.605Z,-7.95
2019-02-25T05:32:24.565Z,-7.97
2019-02-25T05:34:54.412Z,-8.08
2019-02-25T05:37:24.525Z,-7.92
2019-02-25T05:39:54.347Z,-7.84
2019-02-25T05:42:24.099Z,-7.81
2019-02-25T05:44:53.908Z,-7.86
2019-02-25T05:47:23.909Z,-7.79
2019-02-25T05:49:55.048Z,-7.95
2019-02-25T05:52:24.898Z,-7.82
2019-02-25T05:54:54.798Z,-7.82
2019-02-25T05:57:24.521Z,-7.84
2019-02-25T05:59:54.427Z,-7.89
2019-02-25T06:02:24.330Z,-7.31
2019-02-25T06:04:54.100Z,-6.88
2019-02-25T06:07:23.830Z,-6.21
2019-02-25T06:09:53.789Z,-5.59
2019-02-25T06:12:23.764Z,-5.30
2019-02-25T06:14:53.707Z,-4.98
2019-02-25T06:17:23.744Z,-4.72
2019-02-25T06:19:53.813Z,-4.83
2019-02-25T06:22:23.988Z,-5.05
2019-02-25T06:24:53.944Z,-4.88
2019-02-25T06:27:30.689Z,-4.92
2019-02-25T06:29:55.957Z,-5.09
2019-02-25T06:32:26.098Z,-5.43
2019-02-25T06:34:56.065Z,-5.42
2019-02-25T06:37:26.550Z,-5.48
2019-02-25T06:39:56.653Z,-5.38
2019-02-25T06:42:26.853Z,-5.13
2019-02-25T06:44:56.977Z,-4.99
2019-02-25T06:47:27.014Z,-4.45
2019-02-25T06:49:57.035Z,-4.20
2019-02-25T06:52:27.166Z,-3.83
2019-02-25T06:54:57.161Z,-3.54
2019-02-25T06:57:27.500Z,-3.54
2019-02-25T06:59:57.582Z,-3.85
2019-02-25T07:02:27.810Z,-3.45
2019-02-25T07:05:19.820Z,-3.62
2019-02-25T07:07:55.064Z,-3.64
2019-02-25T07:10:44.748Z,-3.43
2019-02-25T07:13:48.546Z,-2.81
2019-02-25T07:16:40.229Z,-3.01
2019-02-25T07:19:34.872Z,-3.06
2019-02-25T07:22:30.115Z,-3.13
2019-02-25T07:25:08.470Z,-3.05
2019-02-25T07:27:47.717Z,-3.08
2019-02-25T07:30:36.620Z,-3.00
2019-02-25T07:33:28.344Z,-3.08
2019-02-25T07:36:11.670Z,-2.83
2019-02-25T07:38:51.921Z,-2.78
2019-02-25T07:41:43.748Z,-2.22
2019-02-25T07:44:42.041Z,-2.06
2019-02-25T07:47:31.005Z,-2.06
2019-02-25T07:50:23.816Z,-2.25
2019-02-25T07:53:01.319Z,-2.45
2019-02-25T07:56:02.411Z,-2.16
2019-02-25T07:58:47.896Z,-2.04
2019-02-25T08:01:39.696Z,-1.29
2019-02-25T08:04:17.739Z,-1.20
2019-02-25T08:07:00.360Z,-0.85
2019-02-25T08:09:36.100Z,-0.81
2019-02-25T08:12:25.026Z,-0.43
2019-02-25T08:15:12.825Z,-0.43
2019-02-25T08:17:58.614Z,-0.06
2019-02-25T08:20:44.194Z,-0.12
2019-02-25T08:23:32.856Z,0.19
2019-02-25T08:26:27.778Z,0.30
2019-02-25T08:29:06.334Z,0.19
2019-02-25T08:31:53.594Z,0.22
2019-02-25T08:34:48.684Z,-0.23
2019-02-25T08:38:03.473Z,-0.35
2019-02-25T08:40:55.481Z,0.02
2019-02-25T08:44:02.364Z,0.60
2019-02-25T08:46:44.166Z,0.72
2019-02-25T08:49:21.454Z,0.85
2019-02-25T08:51:51.611Z,1.04
2019-02-25T08:54:21.536Z,1.12
2019-02-25T08:56:51.602Z,1.58
2019-02-25T08:59:21.547Z,1.65
2019-02-25T09:01:51.646Z,1.32
2019-02-25T09:04:21.455Z,1.31
2019-02-25T09:06:51.595Z,1.52
2019-02-25T09:09:21.960Z,1.54
2019-02-25T09:11:52.019Z,1.75
2019-02-25T09:14:22.193Z,1.82
2019-02-25T09:16:52.241Z,1.98
2019-02-25T09:19:22.439Z,1.91
2019-02-25T09:21:52.594Z,2.41
2019-02-25T09:24:22.555Z,2.48
2019-02-25T09:26:52.415Z,2.71
2019-02-25T09:29:22.478Z,2.44
2019-02-25T09:31:52.710Z,2.41
2019-02-25T09:34:22.921Z,2.90
2019-02-25T09:36:52.949Z,3.07
2019-02-25T09:39:23.042Z,3.13
2019-02-25T09:41:53.091Z,2.79
2019-02-25T09:44:23.097Z,3.13
2019-02-25T09:46:53.228Z,3.11
2019-02-25T09:49:23.448Z,2.96
2019-02-25T09:51:53.477Z,2.87
2019-02-25T09:54:23.519Z,2.75
2019-02-25T09:56:53.661Z,2.88
2019-02-25T09:59:23.670Z,3.16
2019-02-25T10:01:53.744Z,3.41
2019-02-25T10:04:23.745Z,3.53
2019-02-25T10:07:02.136Z,3.10
2019-02-25T10:09:29.815Z,3.33
2019-02-25T10:11:57.186Z,3.63
2019-02-25T10:14:27.343Z,3.50
2019-02-25T10:16:57.320Z,3.42
2019-02-25T10:19:27.504Z,3.23
2019-02-25T10:21:57.549Z,3.33
2019-02-25T10:24:27.791Z,3.55
2019-02-25T10:26:58.924Z,3.63
2019-02-25T10:29:29.208Z,3.79
2019-02-25T10:32:00.182Z,4.01
2019-02-25T10:34:30.979Z,4.20
2019-02-25T10:37:01.157Z,4.16
2019-02-25T10:39:31.560Z,4.26
2019-02-25T10:42:01.794Z,3.73
2019-02-25T10:44:33.970Z,3.94
2019-02-25T10:47:03.454Z,3.90
2019-02-25T10:49:34.486Z,4.19
2019-02-25T10:52:04.531Z,4.56
2019-02-25T10:54:34.647Z,4.43
2019-02-25T10:57:06.173Z,4.00
2019-02-25T10:59:39.518Z,4.38
2019-02-25T11:02:11.597Z,3.88
2019-02-25T11:04:43.859Z,4.13
2019-02-25T11:07:13.731Z,4.21
2019-02-25T11:09:55.604Z,4.45
2019-02-25T11:12:26.319Z,4.40
2019-02-25T11:14:57.384Z,4.03
2019-02-25T11:17:27.237Z,4.14
2019-02-25T11:19:58.523Z,3.85
2019-02-25T11:22:28.676Z,3.56
2019-02-25T11:24:58.684Z,3.44
2019-02-25T11:27:30.912Z,3.30
2019-02-25T11:30:00.263Z,3.28
2019-02-25T11:32:30.685Z,3.25
2019-02-25T11:35:01.373Z,3.13
2019-02-25T11:37:32.295Z,3.09
2019-02-25T11:40:04.298Z,3.24
2019-02-25T11:42:34.187Z,3.15
2019-02-25T11:45:05.674Z,2.86
2019-02-25T11:47:35.767Z,2.76
2019-02-25T11:50:06.327Z,3.07
2019-02-25T11:52:36.331Z,3.32
2019-02-25T11:55:06.983Z,3.61
2019-02-25T11:57:37.135Z,3.80
2019-02-25T12:00:11.489Z,3.81
2019-02-25T12:02:41.256Z,4.12
2019-02-25T12:05:11.816Z,3.77
2019-02-25T12:07:41.550Z,3.64
2019-02-25T12:10:11.504Z,3.56
2019-02-25T12:12:41.324Z,3.59
2019-02-25T12:15:13.243Z,4.02
2019-02-25T12:17:43.360Z,4.47
2019-02-25T12:20:14.442Z,4.35
2019-02-25T12:22:44.298Z,4.54
2019-02-25T12:25:15.067Z,4.33
2019-02-25T12:27:44.804Z,4.66
2019-02-25T12:30:16.021Z,4.31
2019-02-25T12:32:46.312Z,3.68
2019-02-25T12:35:16.780Z,3.49
2019-02-25T12:37:47.009Z,3.05
2019-02-25T12:40:17.281Z,3.04
2019-02-25T12:42:47.460Z,2.86
2019-02-25T12:45:17.989Z,3.03
2019-02-25T12:47:47.972Z,2.77
2019-02-25T12:50:18.309Z,2.38
2019-02-25T12:52:49.217Z,2.37
2019-02-25T12:55:19.659Z,2.35
2019-02-25T12:57:49.535Z,2.29
2019-02-25T13:00:19.957Z,2.18
2019-02-25T13:02:49.914Z,2.38
2019-02-25T13:05:21.352Z,2.61
2019-02-25T13:07:51.610Z,2.64
2019-02-25T13:10:22.195Z,2.79
2019-02-25T13:12:52.338Z,2.87
2019-02-25T13:15:22.842Z,2.88
2019-02-25T13:17:52.709Z,2.86
2019-02-25T13:20:24.005Z,2.69
2019-02-25T13:22:54.156Z,2.69
2019-02-25T13:25:24.880Z,2.59
2019-02-25T13:27:56.463Z,2.64
2019-02-25T13:30:26.774Z,2.58
2019-02-25T13:32:56.742Z,2.73
2019-02-25T13:35:27.167Z,2.66
2019-02-25T13:37:57.404Z,2.59
2019-02-25T13:40:27.701Z,2.68
2019-02-25T13:42:57.768Z,2.75
2019-02-25T13:45:28.368Z,2.89
2019-02-25T13:47:58.312Z,3.06
2019-02-25T13:50:29.034Z,3.02
2019-02-25T13:52:58.928Z,3.07
2019-02-25T13:55:29.121Z,3.03
2019-02-25T13:57:59.291Z,3.12
2019-02-25T14:00:29.834Z,3.18
2019-02-25T14:02:59.816Z,3.24
2019-02-25T14:05:30.459Z,3.40
2019-02-25T14:08:00.495Z,3.22
2019-02-25T14:10:30.358Z,3.04
2019-02-25T14:13:00.617Z,2.91
2019-02-25T14:15:30.898Z,2.73
2019-02-25T14:18:01.267Z,2.55
2019-02-25T14:20:31.219Z,2.57
2019-02-25T14:23:01.363Z,2.56
2019-02-25T14:25:31.365Z,2.58
2019-02-25T14:28:02.864Z,2.57
2019-02-25T14:30:33.433Z,2.63
2019-02-25T14:33:05.000Z,2.46
2019-02-25T14:35:35.286Z,2.52
2019-02-25T14:38:09.693Z,2.62
2019-02-25T14:40:39.805Z,2.62
2019-02-25T14:43:12.613Z,2.56
2019-02-25T14:45:42.082Z,2.51
2019-02-25T14:48:15.417Z,2.77
2019-02-25T14:50:44.321Z,2.78
2019-02-25T14:53:14.595Z,2.60
2019-02-25T14:55:46.839Z,2.70
2019-02-25T14:58:17.550Z,2.63
2019-02-25T15:00:47.680Z,2.79
2019-02-25T15:03:18.101Z,2.76
2019-02-25T15:05:50.218Z,2.79
2019-02-25T15:08:21.895Z,2.66
2019-02-25T15:10:52.321Z,2.74
2019-02-25T15:13:24.011Z,2.76
2019-02-25T15:15:53.914Z,2.86
2019-02-25T15:18:25.206Z,2.92
2019-02-25T15:20:56.472Z,2.88
2019-02-25T15:23:27.975Z,2.94
2019-02-25T15:26:05.002Z,2.88
2019-02-25T15:28:29.778Z,2.89
2019-02-25T15:31:01.805Z,2.89
2019-02-25T15:33:33.264Z,2.85
2019-02-25T15:36:03.409Z,2.88
2019-02-25T15:38:34.896Z,2.93
2019-02-25T15:41:07.278Z,2.93
2019-02-25T15:43:36.798Z,2.93
2019-02-25T15:46:06.672Z,3.05
2019-02-25T15:48:37.257Z,2.99
2019-02-25T15:51:08.052Z,3.09
2019-02-25T15:53:38.041Z,3.02
2019-02-25T15:56:10.330Z,3.12
2019-02-25T15:58:40.317Z,3.15
2019-02-25T16:01:11.571Z,3.14
2019-02-25T16:03:42.963Z,3.21
2019-02-25T16:06:12.859Z,3.17
2019-02-25T16:08:42.532Z,3.18
2019-02-25T16:11:13.944Z,2.99
2019-02-25T16:13:43.617Z,3.12
2019-02-25T16:16:14.409Z,2.96
2019-02-25T16:18:44.542Z,2.99
2019-02-25T16:21:14.680Z,2.98
2019-02-25T16:23:45.396Z,3.06
2019-02-25T16:26:16.173Z,3.06
2019-02-25T16:28:47.054Z,2.88
2019-02-25T16:31:17.056Z,2.95
2019-02-25T16:33:47.462Z,3.02
2019-02-25T16:36:18.384Z,3.12
2019-02-25T16:38:51.244Z,3.02
2019-02-25T16:41:27.173Z,2.90
2019-02-25T16:43:51.253Z,2.87
2019-02-25T16:46:21.342Z,2.94
2019-02-25T16:48:52.817Z,2.78
2019-02-25T16:51:23.886Z,2.63
2019-02-25T16:53:54.621Z,2.37
2019-02-25T16:56:24.589Z,2.33
2019-02-25T16:58:56.575Z,2.15
2019-02-25T17:01:27.967Z,2.11
2019-02-25T17:03:59.674Z,2.08
2019-02-25T17:06:30.397Z,1.95
2019-02-25T17:09:01.149Z,2.03
2019-02-25T17:11:32.676Z,2.00
2019-02-25T17:14:03.782Z,2.00
2019-02-25T17:16:33.944Z,2.02
2019-02-25T17:19:03.993Z,1.97
2019-02-25T17:21:33.833Z,2.00
2019-02-25T17:24:05.712Z,1.94
2019-02-25T17:26:35.823Z,1.92
2019-02-25T17:29:07.070Z,1.96
2019-02-25T17:31:38.577Z,1.93
2019-02-25T17:34:10.417Z,1.91
2019-02-25T17:36:40.038Z,1.91
2019-02-25T17:39:10.933Z,1.95
2019-02-25T17:41:42.981Z,2.05
2019-02-25T17:44:12.763Z,1.95
2019-02-25T17:46:43.368Z,1.96
2019-02-25T17:49:16.360Z,2.05
2019-02-25T17:51:45.973Z,1.96
2019-02-25T17:54:16.844Z,2.00
2019-02-25T17:56:47.470Z,1.84
2019-02-25T17:59:18.360Z,1.89
2019-02-25T18:01:50.151Z,1.96
2019-02-25T18:04:19.750Z,1.85
2019-02-25T18:06:49.822Z,1.85
2019-02-25T18:09:20.488Z,1.92
2019-02-25T18:11:51.823Z,1.88
2019-02-25T18:14:21.615Z,1.90
2019-02-25T18:16:51.775Z,1.76
2019-02-25T18:19:23.081Z,1.55
2019-02-25T18:21:53.527Z,1.37
2019-02-25T18:24:26.762Z,1.36
2019-02-25T18:26:55.149Z,1.31
2019-02-25T18:29:25.238Z,1.45
2019-02-25T18:31:55.886Z,1.33
2019-02-25T18:34:25.806Z,1.29
2019-02-25T18:36:55.815Z,1.29
2019-02-25T18:39:27.338Z,1.26
2019-02-25T18:41:57.290Z,1.20
2019-02-25T18:44:27.357Z,1.27
2019-02-25T18:46:57.429Z,1.26
2019-02-25T18:49:28.301Z,1.15
2019-02-25T18:51:58.691Z,1.04
2019-02-25T18:54:28.581Z,1.11
2019-02-25T18:56:59.008Z,0.98
2019-02-25T18:59:30.498Z,0.96
2019-02-25T19:02:00.643Z,0.85
2019-02-25T19:04:31.630Z,0.84
2019-02-25T19:07:02.402Z,0.89
2019-02-25T19:09:34.814Z,0.85
2019-02-25T19:12:06.511Z,0.65
2019-02-25T19:14:36.404Z,0.54
2019-02-25T19:17:08.537Z,0.43
2019-02-25T19:19:40.253Z,0.37
2019-02-25T19:22:10.773Z,0.28
2019-02-25T19:24:42.834Z,0.35
2019-02-25T19:27:13.496Z,0.32
2019-02-25T19:29:45.475Z,0.51
2019-02-25T19:32:15.395Z,0.51
2019-02-25T19:34:45.214Z,0.51
2019-02-25T19:37:15.489Z,0.52
2019-02-25T19:39:46.779Z,0.46
2019-02-25T19:42:18.147Z,0.33
2019-02-25T19:44:48.962Z,0.44
2019-02-25T19:47:19.948Z,0.37
2019-02-25T19:49:49.738Z,0.47
2019-02-25T19:52:19.731Z,0.38
2019-02-25T19:54:50.862Z,0.32
2019-02-25T19:57:21.671Z,0.41
2019-02-25T19:59:53.078Z,0.41
2019-02-25T20:02:24.857Z,0.39
2019-02-25T20:04:55.362Z,0.24
2019-02-25T20:07:27.967Z,0.23
2019-02-25T20:09:57.812Z,0.22
2019-02-25T20:12:28.368Z,0.09
2019-02-25T20:14:58.403Z,0.16
2019-02-25T20:17:30.498Z,0.06
2019-02-25T20:20:02.490Z,0.05
2019-02-25T20:22:32.779Z,-0.03
2019-02-25T20:25:03.508Z,-0.03
2019-02-25T20:27:34.825Z,-0.03
2019-02-25T20:30:07.155Z,-0.24
2019-02-25T20:32:38.577Z,-0.23
2019-02-25T20:35:09.772Z,-0.30
2019-02-25T20:37:40.002Z,-0.43
2019-02-25T20:40:10.217Z,-0.46
2019-02-25T20:42:40.526Z,-0.45
2019-02-25T20:45:12.085Z,-0.33
2019-02-25T20:47:41.910Z,-0.37
2019-02-25T20:50:14.480Z,-0.26
2019-02-25T20:52:44.715Z,-0.32
2019-02-25T20:55:14.635Z,-0.30
2019-02-25T20:57:44.657Z,-0.23
2019-02-25T21:00:17.618Z,-0.25
2019-02-25T21:02:47.570Z,-0.25
2019-02-25T21:05:19.513Z,-0.34
2019-02-25T21:07:50.473Z,-0.29
2019-02-25T21:10:22.519Z,-0.33
2019-02-25T21:12:53.054Z,-0.31
2019-02-25T21:15:23.615Z,-0.44
2019-02-25T21:17:55.043Z,-0.40
2019-02-25T21:20:26.190Z,-0.43
2019-02-25T21:22:57.855Z,-0.44
2019-02-25T21:25:29.605Z,-0.47
2019-02-25T21:28:02.308Z,-0.61
2019-02-25T21:30:31.927Z,-0.51
2019-02-25T21:33:02.106Z,-0.48
2019-02-25T21:35:35.432Z,-0.50
2019-02-25T21:38:04.021Z,-0.50
2019-02-25T21:40:34.083Z,-0.51
2019-02-25T21:43:03.918Z,-0.54
2019-02-25T21:45:34.073Z,-0.61
2019-02-25T21:48:04.832Z,-0.59
2019-02-25T21:50:35.970Z,-0.67
2019-02-25T21:53:07.501Z,-0.59
2019-02-25T21:55:38.234Z,-0.60
2019-02-25T21:58:08.364Z,-0.63
2019-02-25T22:00:40.722Z,-0.71
2019-02-25T22:03:10.906Z,-0.75
2019-02-25T22:05:41.712Z,-0.68
2019-02-25T22:08:11.615Z,-0.77
2019-02-25T22:10:43.369Z,-0.73
2019-02-25T22:13:14.342Z,-0.86
2019-02-25T22:15:45.277Z,-0.74
2019-02-25T22:18:15.177Z,-0.81
2019-02-25T22:20:47.050Z,-0.87
2019-02-25T22:23:16.534Z,-0.99
2019-02-25T22:25:46.429Z,-0.95
2019-02-25T22:28:16.152Z,-1.06
2019-02-25T22:30:47.495Z,-0.98
2019-02-25T22:33:26.639Z,-0.93
2019-02-25T22:35:51.762Z,-0.99
2019-02-25T22:38:21.158Z,-0.94
2019-02-25T22:40:51.483Z,-1.06
2019-02-25T22:43:22.551Z,-1.13
2019-02-25T22:45:56.152Z,-1.19
2019-02-25T22:48:24.089Z,-1.14
2019-02-25T22:50:55.485Z,-1.21
2019-02-25T22:53:26.745Z,-1.29
2019-02-25T22:55:56.693Z,-1.25
2019-02-25T22:58:27.971Z,-1.19
2019-02-25T23:01:01.338Z,-1.32
2019-02-25T23:03:32.989Z,-1.32
2019-02-25T23:06:02.993Z,-1.31
2019-02-25T23:08:32.694Z,-1.26
2019-02-25T23:11:02.596Z,-1.34
2019-02-25T23:13:32.491Z,-1.33
2019-02-25T23:16:02.411Z,-1.38
2019-02-25T23:18:32.430Z,-1.24
2019-02-25T23:21:03.114Z,-1.19
2019-02-25T23:23:33.516Z,-1.14
2019-02-25T23:26:04.411Z,-1.14
2019-02-25T23:28:34.489Z,-1.14
2019-02-25T23:31:06.953Z,-1.14
2019-02-25T23:33:40.139Z,-1.19
2019-02-25T23:36:10.973Z,-1.26
2019-02-25T23:38:41.539Z,-1.17
2019-02-25T23:41:14.018Z,-1.13
2019-02-25T23:43:44.858Z,-1.10
2019-02-25T23:46:16.053Z,-0.99
2019-02-25T23:48:46.645Z,-0.89
2019-02-25T23:51:21.135Z,-1.00
2019-02-25T23:53:53.199Z,-1.03
2019-02-25T23:56:25.594Z,-0.98
2019-02-25T23:58:55.570Z,-0.99
